Time;durP1;ratioP1;P1;durP2;ratioP2;P2;SDS_P1;SDS_P2;PMS_P1;PMS_P2;Temp;Humidity;BMP_temperature;BMP_pressure;BME280_temperature;BME280_humidity;BME280_pressure;Samples;Min_cycle;Max_cycle;Signal;HPM_P1;HPM_P2
2022/02/19 00:00:24;;;;;;;10.63;4.67;;;;;;;;;;1700620;84;21267;-68
2022/02/19 00:02:50;;;;;;;10.13;4.45;;;;;;;;;;1701395;84;21042;-68
2022/02/19 00:05:17;;;;;;;10.43;4.62;;;;;;;;;;1701101;84;21532;-69
2022/02/19 00:07:44;;;;;;;11.15;4.53;;;;;;;;;;1701007;84;21074;-69
2022/02/19 00:10:11;;;;;;;9.90;4.03;;;;;;;;;;1700998;84;21059;-69
2022/02/19 00:12:37;;;;;;;6.95;4.17;;;;;;;;;;1702279;84;21038;-69
2022/02/19 00:15:05;;;;;;;6.45;3.50;;;;;;;;;;1699327;84;21073;-69
2022/02/19 00:17:31;;;;;;;7.30;3.90;;;;;;;;;;1700573;84;21600;-68
2022/02/19 00:20:00;;;;;;;7.90;3.95;;;;;;;;;;1701140;84;21065;-68
2022/02/19 00:22:26;;;;;;;10.60;4.83;;;;;;;;;;1700379;84;20979;-68
2022/02/19 00:24:51;;;;;;;6.65;3.80;;;;;;;;;;1709595;80;21541;-68
2022/02/19 00:27:17;;;;;;;4.70;3.20;;;;;;;;;;1735712;81;20984;-68
2022/02/19 00:29:45;;;;;;;7.45;3.95;;;;;;;;;;1738022;81;21045;-69
2022/02/19 00:32:11;;;;;;;7.67;3.98;;;;;;;;;;1738366;81;21009;-69
2022/02/19 00:34:37;;;;;;;11.95;4.40;;;;;;;;;;1738300;81;21056;-69
2022/02/19 00:37:03;;;;;;;6.03;3.37;;;;;;;;;;1727886;81;21068;-69
2022/02/19 00:39:30;;;;;;;7.47;3.77;;;;;;;;;;1735611;81;21070;-70
2022/02/19 00:41:56;;;;;;;6.65;3.65;;;;;;;;;;1739728;81;20977;-69
2022/02/19 00:44:22;;;;;;;6.22;3.30;;;;;;;;;;1736256;81;21509;-69
2022/02/19 00:46:48;;;;;;;9.35;4.40;;;;;;;;;;1735660;81;21056;-69
2022/02/19 00:49:14;;;;;;;9.40;3.65;;;;;;;;;;1738828;81;21056;-69
2022/02/19 00:51:40;;;;;;;6.37;3.45;;;;;;;;;;1738042;81;20996;-69
2022/02/19 00:54:06;;;;;;;9.20;4.10;;;;;;;;;;1740179;81;20987;-69
2022/02/19 00:56:32;;;;;;;7.53;3.80;;;;;;;;;;1738764;81;21544;-69
2022/02/19 00:58:58;;;;;;;6.25;3.35;;;;;;;;;;1739139;81;21120;-69
2022/02/19 01:01:24;;;;;;;5.97;3.20;;;;;;;;;;1739483;81;21576;-69
2022/02/19 01:03:52;;;;;;;5.50;3.05;;;;;;;;;;1686765;84;21039;-69
2022/02/19 01:06:19;;;;;;;5.33;2.92;;;;;;;;;;1678057;85;21053;-69
2022/02/19 01:08:46;;;;;;;9.23;4.28;;;;;;;;;;1683597;85;21078;-69
2022/02/19 01:11:12;;;;;;;5.65;3.22;;;;;;;;;;1680555;85;21001;-69
2022/02/19 01:13:40;;;;;;;7.58;3.70;;;;;;;;;;1660192;85;21016;-69
2022/02/19 01:16:06;;;;;;;7.35;3.70;;;;;;;;;;1681666;84;21689;-69
2022/02/19 01:18:34;;;;;;;8.83;3.95;;;;;;;;;;1738487;81;21099;-70
2022/02/19 01:21:00;;;;;;;10.30;4.78;;;;;;;;;;1735518;81;21645;-69
2022/02/19 01:23:27;;;;;;;5.80;2.83;;;;;;;;;;1736542;81;21061;-68
2022/02/19 01:25:53;;;;;;;5.50;3.45;;;;;;;;;;1736619;81;21464;-69
2022/02/19 01:28:19;;;;;;;9.88;4.17;;;;;;;;;;1727723;82;21011;-69
2022/02/19 01:30:45;;;;;;;4.83;3.17;;;;;;;;;;1733386;82;21574;-69
2022/02/19 01:33:12;;;;;;;7.67;3.70;;;;;;;;;;1733063;82;20982;-68
2022/02/19 01:35:38;;;;;;;7.50;3.60;;;;;;;;;;1730913;82;21009;-68
2022/02/19 01:38:04;;;;;;;8.75;3.87;;;;;;;;;;1734187;82;20984;-68
2022/02/19 01:40:30;;;;;;;6.58;3.75;;;;;;;;;;1732964;82;21104;-69
2022/02/19 01:42:57;;;;;;;7.62;3.52;;;;;;;;;;1734033;82;21409;-69
2022/02/19 01:45:25;;;;;;;10.70;4.33;;;;;;;;;;1733519;81;21019;-68
2022/02/19 01:47:51;;;;;;;8.78;3.55;;;;;;;;;;1731600;82;21077;-69
2022/02/19 01:50:19;;;;;;;6.83;3.52;;;;;;;;;;1736594;82;20952;-68
2022/02/19 01:52:47;;;;;;;6.42;3.15;;;;;;;;;;1730619;82;21076;-68
2022/02/19 01:55:15;;;;;;;9.15;3.58;;;;;;;;;;1728640;80;21451;-68
2022/02/19 01:57:45;;;;;;;7.72;3.35;;;;;;;;;;1733240;82;21096;-70
2022/02/19 02:03:20;;;;;;;10.85;4.15;;;;;;;;;;1746567;79;74133;-68
2022/02/19 02:05:48;;;;;;;8.50;4.08;;;;;;;;;;1759810;81;21036;-67
2022/02/19 02:08:16;;;;;;;9.00;3.85;;;;;;;;;;1757676;80;21040;-67
2022/02/19 02:10:44;;;;;;;8.40;4.10;;;;;;;;;;1758259;81;21012;-68
2022/02/19 02:13:13;;;;;;;9.75;3.85;;;;;;;;;;1761085;81;21055;-68
2022/02/19 02:15:40;;;;;;;6.75;3.87;;;;;;;;;;1757897;81;20999;-68
2022/02/19 02:18:11;;;;;;;7.75;4.15;;;;;;;;;;1748779;81;20969;-68
2022/02/19 02:20:38;;;;;;;7.72;3.47;;;;;;;;;;1757860;81;20966;-68
2022/02/19 02:23:07;;;;;;;10.23;4.10;;;;;;;;;;1761911;81;21095;-68
2022/02/19 02:25:33;;;;;;;7.30;3.92;;;;;;;;;;1762160;81;21044;-68
2022/02/19 02:28:01;;;;;;;7.28;3.87;;;;;;;;;;1760292;81;20922;-68
2022/02/19 02:30:27;;;;;;;6.85;3.80;;;;;;;;;;1758351;81;21618;-68
2022/02/19 02:32:55;;;;;;;8.38;4.03;;;;;;;;;;1760475;81;20996;-68
2022/02/19 02:35:21;;;;;;;7.92;3.67;;;;;;;;;;1759624;81;21512;-68
2022/02/19 02:37:48;;;;;;;7.05;3.70;;;;;;;;;;1761890;81;20993;-68
2022/02/19 02:40:15;;;;;;;5.60;3.55;;;;;;;;;;1762835;81;21005;-69
2022/02/19 02:42:41;;;;;;;6.17;4.12;;;;;;;;;;1761842;81;21024;-67
2022/02/19 02:45:09;;;;;;;8.83;4.17;;;;;;;;;;1758577;80;21524;-67
2022/02/19 02:47:37;;;;;;;7.03;3.47;;;;;;;;;;1761055;81;21068;-68
2022/02/19 02:50:05;;;;;;;8.13;3.90;;;;;;;;;;1761320;81;21432;-68
2022/02/19 02:52:32;;;;;;;7.85;3.52;;;;;;;;;;1761500;81;20991;-68
2022/02/19 02:54:59;;;;;;;10.00;3.80;;;;;;;;;;1740414;81;20957;-68
2022/02/19 02:57:26;;;;;;;5.10;3.20;;;;;;;;;;1760544;81;20981;-68
2022/02/19 02:59:53;;;;;;;7.47;3.80;;;;;;;;;;1739046;81;21031;-69
2022/02/19 03:02:20;;;;;;;6.70;3.50;;;;;;;;;;1759815;81;21080;-68
2022/02/19 03:04:46;;;;;;;5.72;3.45;;;;;;;;;;1750287;79;21044;-68
2022/02/19 03:07:13;;;;;;;5.33;3.12;;;;;;;;;;1750645;82;21027;-68
2022/02/19 03:09:40;;;;;;;5.90;3.00;;;;;;;;;;1754913;82;21071;-68
2022/02/19 03:12:07;;;;;;;8.13;3.70;;;;;;;;;;1749614;82;21008;-68
2022/02/19 03:14:33;;;;;;;5.70;3.27;;;;;;;;;;1755179;82;21012;-68
2022/02/19 03:17:00;;;;;;;8.05;3.45;;;;;;;;;;1747521;82;21008;-67
2022/02/19 03:19:26;;;;;;;3.95;2.45;;;;;;;;;;1743641;82;21032;-69
2022/02/19 03:21:52;;;;;;;5.83;2.77;;;;;;;;;;1750937;82;21045;-68
2022/02/19 03:24:18;;;;;;;8.88;3.37;;;;;;;;;;1754786;82;20949;-67
2022/02/19 03:26:45;;;;;;;5.95;2.95;;;;;;;;;;1753206;82;21000;-68
2022/02/19 03:29:13;;;;;;;5.45;2.90;;;;;;;;;;1741747;81;20989;-68
2022/02/19 03:31:41;;;;;;;6.58;2.75;;;;;;;;;;1744532;82;21016;-67
2022/02/19 03:34:18;;;;;;;6.35;3.15;;;;;;;;;;1753433;82;20969;-68
2022/02/19 03:36:46;;;;;;;4.42;2.85;;;;;;;;;;1754185;82;21032;-68
2022/02/19 03:39:11;;;;;;;6.08;3.33;;;;;;;;;;1754053;82;21024;-68
2022/02/19 03:41:37;;;;;;;5.92;3.40;;;;;;;;;;1754267;82;21059;-68
2022/02/19 03:44:04;;;;;;;8.90;3.35;;;;;;;;;;1750990;82;21111;-68
2022/02/19 03:46:32;;;;;;;5.03;2.83;;;;;;;;;;1736009;82;21072;-68
2022/02/19 03:49:03;;;;;;;6.85;3.12;;;;;;;;;;1715079;83;21068;-68
2022/02/19 03:51:30;;;;;;;7.25;3.37;;;;;;;;;;1748982;81;20970;-69
2022/02/19 03:53:56;;;;;;;5.78;2.90;;;;;;;;;;1751707;82;20997;-69
2022/02/19 03:56:24;;;;;;;4.60;2.80;;;;;;;;;;1753270;82;20981;-68
2022/02/19 03:58:52;;;;;;;7.12;2.90;;;;;;;;;;1746573;81;21062;-68
2022/02/19 04:01:19;;;;;;;7.60;3.58;;;;;;;;;;1745604;82;21509;-68
2022/02/19 04:03:45;;;;;;;7.37;2.90;;;;;;;;;;1753661;80;21566;-68
2022/02/19 04:06:13;;;;;;;6.50;3.25;;;;;;;;;;1690886;83;21019;-67
2022/02/19 04:08:40;;;;;;;5.67;3.20;;;;;;;;;;1752341;82;21025;-68
2022/02/19 04:11:07;;;;;;;5.33;2.95;;;;;;;;;;1747976;82;21021;-68
2022/02/19 04:13:35;;;;;;;3.62;2.67;;;;;;;;;;1749396;82;21076;-68
2022/02/19 04:16:12;;;;;;;8.60;3.70;;;;;;;;;;1748194;82;20997;-68
2022/02/19 04:18:41;;;;;;;5.15;3.37;;;;;;;;;;1749095;82;21559;-68
2022/02/19 04:21:08;;;;;;;7.20;3.67;;;;;;;;;;1751019;82;21016;-67
2022/02/19 04:23:36;;;;;;;6.90;3.00;;;;;;;;;;1751872;81;21025;-69
2022/02/19 04:26:03;;;;;;;6.53;2.95;;;;;;;;;;1751155;82;21575;-68
2022/02/19 04:28:31;;;;;;;6.42;4.05;;;;;;;;;;1751269;82;21044;-68
2022/02/19 04:30:57;;;;;;;6.10;2.95;;;;;;;;;;1753290;82;21574;-68
2022/02/19 04:33:24;;;;;;;7.00;3.42;;;;;;;;;;1749746;82;21067;-68
2022/02/19 04:35:52;;;;;;;5.80;3.12;;;;;;;;;;1751626;81;21084;-67
2022/02/19 04:38:23;;;;;;;6.20;3.05;;;;;;;;;;1710484;83;21025;-68
2022/02/19 04:40:46;;;;;;;6.60;2.80;;;;;;;;;;1719335;83;20999;-68
2022/02/19 04:43:12;;;;;;;7.20;3.15;;;;;;;;;;1720138;83;21470;-69
2022/02/19 04:45:40;;;;;;;5.10;3.37;;;;;;;;;;1715464;83;21488;-68
2022/02/19 04:48:08;;;;;;;6.37;3.15;;;;;;;;;;1717392;83;21030;-68
2022/02/19 04:50:35;;;;;;;5.05;2.98;;;;;;;;;;1723118;83;21049;-69
2022/02/19 04:53:04;;;;;;;6.95;3.35;;;;;;;;;;1718620;83;21041;-69
2022/02/19 04:55:33;;;;;;;5.65;2.95;;;;;;;;;;1716394;83;21061;-69
2022/02/19 04:58:01;;;;;;;11.75;3.33;;;;;;;;;;1717364;83;21065;-68
2022/02/19 05:00:28;;;;;;;7.83;3.67;;;;;;;;;;1721176;83;21034;-69
2022/02/19 05:03:13;;;;;;;6.58;3.02;;;;;;;;;;1748168;81;21077;-67
2022/02/19 05:05:41;;;;;;;4.95;2.90;;;;;;;;;;1744063;82;21058;-67
2022/02/19 05:08:07;;;;;;;7.12;3.52;;;;;;;;;;1743924;82;21534;-68
2022/02/19 05:10:35;;;;;;;7.10;3.12;;;;;;;;;;1744035;82;21035;-67
2022/02/19 05:13:03;;;;;;;5.37;3.08;;;;;;;;;;1738628;81;21015;-68
2022/02/19 05:15:30;;;;;;;4.70;3.08;;;;;;;;;;1744917;82;21043;-68
2022/02/19 05:18:03;;;;;;;4.58;2.58;;;;;;;;;;1737216;82;20989;-68
2022/02/19 05:20:31;;;;;;;6.70;3.47;;;;;;;;;;1740926;82;20976;-68
2022/02/19 05:22:58;;;;;;;8.15;3.10;;;;;;;;;;1744081;81;21011;-68
2022/02/19 05:25:26;;;;;;;8.63;3.45;;;;;;;;;;1738715;82;20996;-68
2022/02/19 05:27:54;;;;;;;6.60;3.27;;;;;;;;;;1714109;82;21007;-68
2022/02/19 05:30:21;;;;;;;4.87;3.15;;;;;;;;;;1741510;81;21600;-69
2022/02/19 05:33:05;;;;;;;;;;;;;;;;;;1740946;82;21011;-68
2022/02/19 05:35:33;;;;;;;6.08;3.60;;;;;;;;;;1742468;82;20142;-68
2022/02/19 05:38:00;;;;;;;7.05;3.05;;;;;;;;;;1740725;81;20964;-68
2022/02/19 05:40:27;;;;;;;4.78;2.80;;;;;;;;;;1741194;81;20996;-68
2022/02/19 05:42:53;;;;;;;5.53;2.58;;;;;;;;;;1738537;81;21546;-69
2022/02/19 05:45:24;;;;;;;5.42;3.20;;;;;;;;;;1736699;81;21034;-69
2022/02/19 05:47:52;;;;;;;7.15;3.33;;;;;;;;;;1743348;82;21076;-68
2022/02/19 05:50:20;;;;;;;5.55;2.83;;;;;;;;;;1741319;81;20999;-69
2022/02/19 05:52:48;;;;;;;4.78;2.90;;;;;;;;;;1742919;81;21590;-69
2022/02/19 05:55:19;;;;;;;5.70;3.12;;;;;;;;;;1740463;82;21063;-68
2022/02/19 05:57:47;;;;;;;6.17;3.22;;;;;;;;;;1743495;81;21042;-69
2022/02/19 06:00:13;;;;;;;4.53;2.42;;;;;;;;;;1742472;82;21003;-69
2022/02/19 06:02:42;;;;;;;3.25;2.70;;;;;;;;;;1742251;81;21055;-68
2022/02/19 06:05:09;;;;;;;6.50;3.67;;;;;;;;;;1749337;82;21475;-69
2022/02/19 06:07:38;;;;;;;4.87;2.85;;;;;;;;;;1747669;81;21013;-69
2022/02/19 06:10:05;;;;;;;6.85;3.45;;;;;;;;;;1751359;82;20984;-68
2022/02/19 06:12:32;;;;;;;5.50;3.30;;;;;;;;;;1750646;82;21034;-69
2022/02/19 06:15:01;;;;;;;8.00;3.27;;;;;;;;;;1749637;82;21009;-69
2022/02/19 06:17:30;;;;;;;4.87;2.85;;;;;;;;;;1709263;83;21595;-69
2022/02/19 06:19:56;;;;;;;5.03;2.60;;;;;;;;;;1679556;85;21527;-69
2022/02/19 06:22:22;;;;;;;7.12;2.92;;;;;;;;;;1704857;83;21003;-68
2022/02/19 06:24:50;;;;;;;7.53;3.40;;;;;;;;;;1679474;85;21041;-69
2022/02/19 06:27:15;;;;;;;5.35;3.20;;;;;;;;;;1724498;83;21521;-69
2022/02/19 06:29:44;;;;;;;5.40;2.70;;;;;;;;;;1722104;83;21104;-68
2022/02/19 06:32:10;;;;;;;6.60;2.87;;;;;;;;;;1690775;85;21306;-68
2022/02/19 06:34:38;;;;;;;8.93;3.50;;;;;;;;;;1748408;81;21016;-69
2022/02/19 06:37:07;;;;;;;3.98;2.52;;;;;;;;;;1743286;81;21049;-68
2022/02/19 06:39:35;;;;;;;6.53;3.27;;;;;;;;;;1745970;82;21009;-69
2022/02/19 06:42:02;;;;;;;6.60;3.00;;;;;;;;;;1751998;82;21048;-69
2022/02/19 06:44:42;;;;;;;5.25;2.65;;;;;;;;;;1704222;81;21013;-67
2022/02/19 06:47:09;;;;;;;5.42;2.70;;;;;;;;;;1753814;82;21012;-68
2022/02/19 06:49:35;;;;;;;5.05;2.98;;;;;;;;;;1751881;82;21048;-70
2022/02/19 06:52:04;;;;;;;4.40;2.40;;;;;;;;;;1753182;82;21064;-68
2022/02/19 06:54:30;;;;;;;5.05;2.87;;;;;;;;;;1752764;82;20973;-68
2022/02/19 06:56:58;;;;;;;6.55;2.70;;;;;;;;;;1756190;82;21451;-69
2022/02/19 06:59:25;;;;;;;4.53;2.87;;;;;;;;;;1749938;82;21026;-70
2022/02/19 07:01:51;;;;;;;5.45;3.02;;;;;;;;;;1754170;80;21064;-68
2022/02/19 07:04:18;;;;;;;5.97;2.55;;;;;;;;;;1757562;79;21143;-69
2022/02/19 07:06:45;;;;;;;3.62;2.50;;;;;;;;;;1718113;80;21032;-69
2022/02/19 07:09:12;;;;;;;3.92;2.60;;;;;;;;;;1753168;82;21504;-69
2022/02/19 07:11:39;;;;;;;4.80;2.72;;;;;;;;;;1753554;82;21477;-69
2022/02/19 07:14:07;;;;;;;6.80;2.72;;;;;;;;;;1746624;82;21001;-69
2022/02/19 07:16:35;;;;;;;6.53;2.98;;;;;;;;;;1746354;81;21009;-69
2022/02/19 07:19:00;;;;;;;4.90;2.62;;;;;;;;;;1755823;80;20972;-70
2022/02/19 07:21:27;;;;;;;4.62;2.77;;;;;;;;;;1751663;80;21068;-68
2022/02/19 07:23:53;;;;;;;5.85;2.65;;;;;;;;;;1750043;81;21004;-67
2022/02/19 07:26:21;;;;;;;4.95;2.60;;;;;;;;;;1750330;81;21035;-67
2022/02/19 07:28:49;;;;;;;5.97;3.27;;;;;;;;;;1747855;81;21076;-69
2022/02/19 07:31:17;;;;;;;4.97;2.90;;;;;;;;;;1750920;81;21005;-68
2022/02/19 07:33:43;;;;;;;7.50;2.70;;;;;;;;;;1748513;81;21016;-68
2022/02/19 07:36:11;;;;;;;4.55;2.77;;;;;;;;;;1713120;83;21049;-68
2022/02/19 07:38:38;;;;;;;6.25;3.30;;;;;;;;;;1681530;85;20998;-68
2022/02/19 07:41:05;;;;;;;4.10;2.42;;;;;;;;;;1753478;80;20972;-68
2022/02/19 07:43:33;;;;;;;6.65;2.45;;;;;;;;;;1749474;81;21021;-68
2022/02/19 07:46:01;;;;;;;4.42;2.52;;;;;;;;;;1753475;82;21036;-68
2022/02/19 07:48:38;;;;;;;4.55;2.65;;;;;;;;;;1755570;80;21020;-68
2022/02/19 07:59:50;;;;;;;6.45;2.95;;;;;;;;;;1748108;81;21004;-68
2022/02/19 08:02:16;;;;;;;6.83;2.58;;;;;;;;;;1745533;82;21123;-68
2022/02/19 08:04:42;;;;;;;4.22;2.50;;;;;;;;;;1751357;81;21070;-68
2022/02/19 08:07:08;;;;;;;6.60;2.98;;;;;;;;;;1755449;81;21020;-68
2022/02/19 08:09:34;;;;;;;4.70;3.30;;;;;;;;;;1763022;81;20948;-68
2022/02/19 08:12:01;;;;;;;5.95;3.27;;;;;;;;;;1744277;82;21038;-68
2022/02/19 08:14:27;;;;;;;4.80;2.50;;;;;;;;;;1742294;82;21538;-68
2022/02/19 08:16:54;;;;;;;4.62;2.40;;;;;;;;;;1744804;82;21032;-68
2022/02/19 08:19:21;;;;;;;4.78;2.98;;;;;;;;;;1742069;82;21013;-66
2022/02/19 08:21:47;;;;;;;6.47;2.55;;;;;;;;;;1746613;82;21064;-68
2022/02/19 08:24:13;;;;;;;6.28;2.80;;;;;;;;;;1743984;82;21041;-67
2022/02/19 08:26:39;;;;;;;6.03;3.10;;;;;;;;;;1743569;82;21047;-68
2022/02/19 08:29:05;;;;;;;7.95;3.12;;;;;;;;;;1737603;82;21030;-67
2022/02/19 08:31:34;;;;;;;4.30;2.45;;;;;;;;;;1743367;82;21495;-67
2022/02/19 08:34:00;;;;;;;6.42;2.98;;;;;;;;;;1741569;82;21500;-67
2022/02/19 08:36:26;;;;;;;4.22;2.85;;;;;;;;;;1737986;82;21057;-67
2022/02/19 08:38:52;;;;;;;6.25;2.80;;;;;;;;;;1746129;82;21435;-68
2022/02/19 08:42:42;;;;;;;8.15;3.20;;;;;;;;;;1803291;79;22888;-68
2022/02/19 08:45:09;;;;;;;8.13;3.58;;;;;;;;;;1761330;80;21046;-68
2022/02/19 08:47:35;;;;;;;6.40;2.60;;;;;;;;;;1761790;81;21009;-67
2022/02/19 08:50:01;;;;;;;5.20;3.02;;;;;;;;;;1761393;81;22007;-67
2022/02/19 08:52:28;;;;;;;5.33;3.40;;;;;;;;;;1755971;81;21405;-67
2022/02/19 08:54:54;;;;;;;6.28;3.50;;;;;;;;;;1766004;80;22141;-68
2022/02/19 08:57:20;;;;;;;7.50;3.30;;;;;;;;;;1761339;81;21034;-68
2022/02/19 08:59:46;;;;;;;5.75;3.00;;;;;;;;;;1763928;80;22357;-69
2022/02/19 09:02:12;;;;;;;6.10;3.17;;;;;;;;;;1756734;80;21052;-68
2022/02/19 09:04:39;;;;;;;5.35;3.30;;;;;;;;;;1759540;81;21017;-69
2022/02/19 09:07:05;;;;;;;6.50;2.75;;;;;;;;;;1758060;81;21058;-69
2022/02/19 09:09:33;;;;;;;7.12;3.60;;;;;;;;;;1758481;81;20981;-69
2022/02/19 09:11:59;;;;;;;7.90;3.33;;;;;;;;;;1747813;81;20964;-68
2022/02/19 09:14:27;;;;;;;6.12;3.10;;;;;;;;;;1762855;80;21020;-69
2022/02/19 09:16:53;;;;;;;6.15;3.10;;;;;;;;;;1758932;81;20956;-68
2022/02/19 09:19:19;;;;;;;11.10;4.30;;;;;;;;;;1759414;80;21076;-68
2022/02/19 09:21:46;;;;;;;6.53;4.03;;;;;;;;;;1754564;81;21031;-69
2022/02/19 09:24:12;;;;;;;7.67;3.30;;;;;;;;;;1750344;81;21040;-69
2022/02/19 09:26:38;;;;;;;9.98;5.12;;;;;;;;;;1766833;80;21036;-70
2022/02/19 09:29:04;;;;;;;9.15;4.12;;;;;;;;;;1759729;80;21064;-68
2022/02/19 09:31:31;;;;;;;12.47;5.15;;;;;;;;;;1758658;81;21004;-70
2022/02/19 09:33:57;;;;;;;8.28;4.03;;;;;;;;;;1760595;81;21599;-69
2022/02/19 09:36:23;;;;;;;13.62;6.92;;;;;;;;;;1761135;81;20981;-69
2022/02/19 09:38:49;;;;;;;14.20;5.80;;;;;;;;;;1756201;81;21548;-69
2022/02/19 09:41:16;;;;;;;10.53;4.87;;;;;;;;;;1758376;80;21545;-69
2022/02/19 09:43:42;;;;;;;15.60;7.90;;;;;;;;;;1749761;81;21120;-70
2022/02/19 09:46:08;;;;;;;15.35;7.90;;;;;;;;;;1744615;81;21002;-69
2022/02/19 09:48:34;;;;;;;14.40;6.22;;;;;;;;;;1749102;81;21001;-69
2022/02/19 09:51:00;;;;;;;12.93;5.87;;;;;;;;;;1748252;81;20991;-69
2022/02/19 09:53:26;;;;;;;8.80;4.08;;;;;;;;;;1752359;80;21053;-69
2022/02/19 09:55:52;;;;;;;8.33;4.62;;;;;;;;;;1747949;81;20965;-68
2022/02/19 09:58:18;;;;;;;11.83;4.90;;;;;;;;;;1742402;81;20993;-69
2022/02/19 10:00:46;;;;;;;9.23;3.98;;;;;;;;;;1748317;80;20978;-70
2022/02/19 10:03:23;;;;;;;7.53;3.95;;;;;;;;;;1746627;80;21088;-69
2022/02/19 10:05:49;;;;;;;16.90;7.47;;;;;;;;;;1745493;80;21080;-70
2022/02/19 10:08:15;;;;;;;22.32;11.97;;;;;;;;;;1747045;80;20998;-71
2022/02/19 10:10:48;;;;;;;16.55;7.67;;;;;;;;;;1754237;80;21463;-70
2022/02/19 10:13:28;;;;;;;12.25;6.50;;;;;;;;;;1743866;80;21579;-69
2022/02/19 10:15:53;;;;;;;8.73;4.33;;;;;;;;;;1746405;80;21072;-69
2022/02/19 10:18:23;;;;;;;9.85;4.55;;;;;;;;;;1746999;80;21060;-69
2022/02/19 10:20:51;;;;;;;5.95;3.42;;;;;;;;;;1747510;80;21043;-69
2022/02/19 10:23:17;;;;;;;7.80;4.20;;;;;;;;;;1743342;82;22201;-70
2022/02/19 10:25:43;;;;;;;7.33;3.80;;;;;;;;;;1747659;82;21096;-69
2022/02/19 10:28:12;;;;;;;6.30;3.55;;;;;;;;;;1746731;82;22179;-70
2022/02/19 10:30:38;;;;;;;9.98;3.85;;;;;;;;;;1737456;82;21482;-70
2022/02/19 10:33:07;;;;;;;6.35;3.17;;;;;;;;;;1723322;82;21034;-69
2022/02/19 10:35:37;;;;;;;9.93;4.55;;;;;;;;;;1747883;81;21049;-69
2022/02/19 10:38:03;;;;;;;9.38;4.95;;;;;;;;;;1747925;81;21062;-70
2022/02/19 10:40:32;;;;;;;11.22;4.72;;;;;;;;;;1743773;82;21077;-71
2022/02/19 10:42:59;;;;;;;8.48;4.10;;;;;;;;;;1747688;81;21013;-69
2022/02/19 10:45:25;;;;;;;5.87;3.33;;;;;;;;;;1747547;82;21510;-70
2022/02/19 10:47:55;;;;;;;7.75;4.47;;;;;;;;;;1747937;81;21030;-70
2022/02/19 10:50:21;;;;;;;6.17;3.10;;;;;;;;;;1737052;82;20971;-70
2022/02/19 10:52:51;;;;;;;13.38;6.40;;;;;;;;;;1748034;82;21043;-70
2022/02/19 10:55:19;;;;;;;10.88;5.85;;;;;;;;;;1752251;80;21012;-70
2022/02/19 10:57:45;;;;;;;11.25;5.60;;;;;;;;;;1747873;81;21051;-69
2022/02/19 11:00:15;;;;;;;12.40;6.60;;;;;;;;;;1744294;82;21003;-70
2022/02/19 11:02:43;;;;;;;8.45;4.50;;;;;;;;;;1745685;80;21576;-70
2022/02/19 11:05:09;;;;;;;7.22;3.98;;;;;;;;;;1744949;80;20991;-69
2022/02/19 11:07:37;;;;;;;7.20;3.67;;;;;;;;;;1747005;82;21097;-70
2022/02/19 11:10:04;;;;;;;9.65;4.45;;;;;;;;;;1747920;81;21030;-70
2022/02/19 11:12:31;;;;;;;8.40;3.95;;;;;;;;;;1747710;81;21007;-70
2022/02/19 11:14:57;;;;;;;8.48;4.15;;;;;;;;;;1745545;80;20921;-69
2022/02/19 11:17:23;;;;;;;5.40;3.02;;;;;;;;;;1744796;80;20957;-68
2022/02/19 11:19:49;;;;;;;7.95;4.25;;;;;;;;;;1749142;80;21018;-71
2022/02/19 11:22:16;;;;;;;10.75;4.25;;;;;;;;;;1749694;80;21074;-70
2022/02/19 11:24:43;;;;;;;8.03;4.08;;;;;;;;;;1747331;80;21568;-71
2022/02/19 11:27:11;;;;;;;7.75;4.22;;;;;;;;;;1740031;80;20989;-70
2022/02/19 11:29:37;;;;;;;8.68;4.53;;;;;;;;;;1746734;82;21490;-70
2022/02/19 11:32:03;;;;;;;8.93;4.90;;;;;;;;;;1747892;80;21004;-70
2022/02/19 11:34:30;;;;;;;8.83;4.40;;;;;;;;;;1742481;80;21035;-71
2022/02/19 11:37:06;;;;;;;8.05;3.75;;;;;;;;;;1747270;80;20969;-70
2022/02/19 11:39:33;;;;;;;7.60;3.85;;;;;;;;;;1723737;80;21027;-70
2022/02/19 11:41:59;;;;;;;9.83;4.50;;;;;;;;;;1726272;82;21159;-70
2022/02/19 11:44:26;;;;;;;9.43;4.72;;;;;;;;;;1746242;81;21024;-70
2022/02/19 11:46:53;;;;;;;7.65;3.58;;;;;;;;;;1747740;82;21026;-70
2022/02/19 11:49:20;;;;;;;6.15;3.95;;;;;;;;;;1750282;80;21045;-70
2022/02/19 11:51:47;;;;;;;8.93;4.78;;;;;;;;;;1754181;80;21001;-70
2022/02/19 11:54:19;;;;;;;9.73;4.60;;;;;;;;;;1745669;80;21077;-69
2022/02/19 11:56:45;;;;;;;7.67;4.53;;;;;;;;;;1748209;80;21050;-70
2022/02/19 11:59:12;;;;;;;9.43;3.90;;;;;;;;;;1744922;80;21076;-71
2022/02/19 12:01:39;;;;;;;6.95;3.62;;;;;;;;;;1742910;81;21123;-70
2022/02/19 12:04:13;;;;;;;5.65;3.58;;;;;;;;;;1748400;81;21017;-70
2022/02/19 12:06:40;;;;;;;8.75;4.28;;;;;;;;;;1747315;81;21005;-69
2022/02/19 12:09:10;;;;;;;9.10;4.50;;;;;;;;;;1750318;80;20991;-70
2022/02/19 12:11:57;;;;;;;7.67;3.65;;;;;;;;;;1750079;81;21528;-70
2022/02/19 12:14:44;;;;;;;7.42;4.75;;;;;;;;;;1745991;82;21040;-70
2022/02/19 12:17:10;;;;;;;6.95;3.70;;;;;;;;;;1751710;81;21067;-70
2022/02/19 12:19:53;;;;;;;9.35;4.80;;;;;;;;;;1750713;80;20954;-70
2022/02/19 12:22:33;;;;;;;12.37;5.37;;;;;;;;;;1746196;82;21043;-70
2022/02/19 12:24:59;;;;;;;10.53;4.90;;;;;;;;;;1745603;82;21049;-70
2022/02/19 12:27:25;;;;;;;9.15;4.85;;;;;;;;;;1748517;80;21027;-69
2022/02/19 12:29:51;;;;;;;8.60;4.10;;;;;;;;;;1751988;80;21005;-70
2022/02/19 12:32:19;;;;;;;6.00;3.17;;;;;;;;;;1733624;81;21643;-70
2022/02/19 12:34:50;;;;;;;8.25;4.10;;;;;;;;;;1750109;80;21070;-69
2022/02/19 12:37:17;;;;;;;7.55;5.00;;;;;;;;;;1753118;80;21475;-70
2022/02/19 12:39:47;;;;;;;10.08;5.28;;;;;;;;;;1747801;80;21017;-69
2022/02/19 12:42:16;;;;;;;8.80;3.77;;;;;;;;;;1747563;80;21036;-70
2022/02/19 12:44:43;;;;;;;7.87;4.05;;;;;;;;;;1749629;80;21021;-71
2022/02/19 12:47:09;;;;;;;8.98;4.55;;;;;;;;;;1747891;82;21181;-71
2022/02/19 12:49:35;;;;;;;10.78;5.42;;;;;;;;;;1748078;81;21456;-70
2022/02/19 12:52:02;;;;;;;8.15;4.37;;;;;;;;;;1744431;81;22047;-70
2022/02/19 12:54:35;;;;;;;10.68;4.40;;;;;;;;;;1751070;80;20998;-70
2022/02/19 12:57:01;;;;;;;15.07;7.63;;;;;;;;;;1748108;81;21432;-69
2022/02/19 12:59:28;;;;;;;12.68;6.53;;;;;;;;;;1747542;80;21045;-69
2022/02/19 13:01:54;;;;;;;8.58;4.65;;;;;;;;;;1748881;80;21058;-70
2022/02/19 13:04:28;;;;;;;12.58;6.60;;;;;;;;;;1750489;80;21058;-69
2022/02/19 13:06:54;;;;;;;15.55;8.58;;;;;;;;;;1742876;82;21046;-70
2022/02/19 13:09:21;;;;;;;10.15;5.53;;;;;;;;;;1751518;80;21028;-70
2022/02/19 13:11:50;;;;;;;7.30;4.00;;;;;;;;;;1744208;81;21019;-70
2022/02/19 13:14:16;;;;;;;7.97;4.90;;;;;;;;;;1748063;82;20978;-70
2022/02/19 13:17:02;;;;;;;9.35;4.45;;;;;;;;;;1747287;81;21613;-70
2022/02/19 13:19:28;;;;;;;8.00;4.65;;;;;;;;;;1745310;82;20960;-69
2022/02/19 13:22:07;;;;;;;9.78;5.15;;;;;;;;;;1747503;81;21044;-70
2022/02/19 13:24:35;;;;;;;8.18;5.00;;;;;;;;;;1739224;82;21032;-70
2022/02/19 13:27:09;;;;;;;6.67;3.80;;;;;;;;;;1747011;81;21040;-70
2022/02/19 13:29:36;;;;;;;6.70;4.30;;;;;;;;;;1742002;82;21013;-71
2022/02/19 13:32:05;;;;;;;9.23;4.55;;;;;;;;;;1742961;80;21000;-71
2022/02/19 13:34:37;;;;;;;10.28;4.45;;;;;;;;;;1743576;82;21527;-70
2022/02/19 13:37:04;;;;;;;11.08;4.00;;;;;;;;;;1748086;82;21523;-70
2022/02/19 13:39:35;;;;;;;8.85;5.15;;;;;;;;;;1746644;80;21029;-71
2022/02/19 13:42:01;;;;;;;8.20;3.83;;;;;;;;;;1744061;81;20992;-69
2022/02/19 13:44:29;;;;;;;7.12;3.60;;;;;;;;;;1746286;82;21509;-71
2022/02/19 13:47:00;;;;;;;8.45;3.72;;;;;;;;;;1748031;81;21615;-69
2022/02/19 13:49:36;;;;;;;7.12;3.60;;;;;;;;;;1751898;80;21025;-69
2022/02/19 13:52:02;;;;;;;8.50;3.37;;;;;;;;;;1747407;80;21052;-70
2022/02/19 13:54:28;;;;;;;6.95;3.90;;;;;;;;;;1748195;80;20997;-72
2022/02/19 13:56:53;;;;;;;6.58;3.77;;;;;;;;;;1732507;81;21073;-70
2022/02/19 13:59:21;;;;;;;9.95;3.50;;;;;;;;;;1747292;80;21281;-69
2022/02/19 14:01:48;;;;;;;6.75;4.03;;;;;;;;;;1751226;80;21031;-70
2022/02/19 14:04:33;;;;;;;7.55;4.33;;;;;;;;;;1746803;80;21061;-71
2022/02/19 14:07:07;;;;;;;6.58;4.08;;;;;;;;;;1752763;80;21034;-69
2022/02/19 14:09:34;;;;;;;5.65;3.70;;;;;;;;;;1708489;82;21024;-71
2022/02/19 14:12:01;;;;;;;7.58;3.80;;;;;;;;;;1752013;81;21067;-70
2022/02/19 14:14:28;;;;;;;8.80;4.60;;;;;;;;;;1749751;81;21471;-70
2022/02/19 14:17:02;;;;;;;7.95;3.60;;;;;;;;;;1747488;80;20949;-70
2022/02/19 14:19:28;;;;;;;11.55;5.72;;;;;;;;;;1734993;80;21532;-70
2022/02/19 14:22:05;;;;;;;8.60;3.85;;;;;;;;;;1749362;81;21002;-71
2022/02/19 14:24:31;;;;;;;7.22;3.98;;;;;;;;;;1742541;80;21072;-70
2022/02/19 14:27:13;;;;;;;8.00;3.77;;;;;;;;;;1743627;81;20975;-71
2022/02/19 14:29:40;;;;;;;7.20;3.27;;;;;;;;;;1743180;80;21049;-71
2022/02/19 14:32:07;;;;;;;9.33;4.08;;;;;;;;;;1746574;81;21005;-71
2022/02/19 14:34:36;;;;;;;10.35;4.87;;;;;;;;;;1751645;80;21013;-69
2022/02/19 14:37:02;;;;;;;7.12;3.52;;;;;;;;;;1749183;80;21036;-70
2022/02/19 14:39:28;;;;;;;7.42;4.12;;;;;;;;;;1742130;81;21573;-71
2022/02/19 14:41:57;;;;;;;6.55;3.77;;;;;;;;;;1746795;81;21021;-70
2022/02/19 14:44:23;;;;;;;6.80;3.62;;;;;;;;;;1750722;81;21024;-72
2022/02/19 14:46:51;;;;;;;8.30;4.20;;;;;;;;;;1747428;81;21556;-70
2022/02/19 14:49:17;;;;;;;8.70;4.70;;;;;;;;;;1746300;82;21012;-70
2022/02/19 14:51:43;;;;;;;11.48;4.80;;;;;;;;;;1739174;81;21010;-69
2022/02/19 14:54:09;;;;;;;7.42;4.17;;;;;;;;;;1741139;80;21605;-69
2022/02/19 14:56:36;;;;;;;6.50;3.62;;;;;;;;;;1745838;82;21035;-70